^^
Grace C. Lehan Memorial Weather Station Historical Data
Daily Summary for January 22, 2021 Units:  Metric    English   Both
Daily Weekly Monthly Yearly
  High: Low: Average:
Temperature: 8.9 °C -1.2 °C 2.7 °C
Dew Point: 0.8 °C -5.2 °C -2.4 °C
Humidity: 84% 52.2% 70%
Wind Speed: 14.6km/h 0km/h 3.4km/h
Wind Gust: 35.4km/h - -
Wind- - WNW
Pressure: 1010 hPa 1000.6 hPa -
Precipitation: 0 mm    
 
 
Tabular Data for January 22, 2021
Time Temperature Dew Point Pressure Wind Wind Speed Wind Gust Humidity Rainfall Rate (Hourly) solar
00:04 0.6 °C -3.7 °C 1000.9 hPa WSW 0.2 km/h 3.2 km/h 73% 0 mm 0 W/m2
00:09 0.7 °C -3.6 °C 1000.9 hPa WSW 0.3 km/h 3.2 km/h 73.1% 0 mm 0 W/m2
00:14 0.8 °C -3.3 °C 1000.9 hPa WSW 1.6 km/h 4.8 km/h 74% 0 mm 0 W/m2
00:19 0.8 °C -3.3 °C 1000.9 hPa WSW 1.3 km/h 9.7 km/h 74% 0 mm 0 W/m2
00:24 0.9 °C -3.2 °C 1000.9 hPa WSW 0.3 km/h 9.7 km/h 74% 0 mm 0 W/m2
00:29 0.9 °C -3.2 °C 1000.6 hPa Calm   9.7 km/h 74% 0 mm 0 W/m2
00:34 0.9 °C -3.2 °C 1000.6 hPa WSW 0.6 km/h 9.7 km/h 74% 0 mm 0 W/m2
00:39 0.9 °C -3.2 °C 1000.6 hPa Calm   6.4 km/h 74% 0 mm 0 W/m2
00:44 0.9 °C -3.2 °C 1000.6 hPa Calm   6.4 km/h 74% 0 mm 0 W/m2
00:49 0.9 °C -3.2 °C 1000.6 hPa Calm   6.4 km/h 74% 0 mm 0 W/m2
00:54 0.8 °C -3.2 °C 1000.6 hPa Calm   6.4 km/h 74.4% 0 mm 0 W/m2
00:59 0.8 °C -3.2 °C 1000.6 hPa Calm   6.4 km/h 75% 0 mm 0 W/m2
01:04 0.7 °C -3.2 °C 1000.6 hPa Calm   6.4 km/h 75% 0 mm 0 W/m2
01:09 0.7 °C -3.2 °C 1000.6 hPa Calm     75% 0 mm 0 W/m2
01:14 0.6 °C -3.3 °C 1000.9 hPa Calm     75% 0 mm 0 W/m2
01:19 0.5 °C -3.4 °C 1000.9 hPa Calm     75% 0 mm 0 W/m2
01:24 0.4 °C -3.4 °C 1000.6 hPa Calm     75.2% 0 mm 0 W/m2
01:29 0.4 °C -3.3 °C 1000.6 hPa Calm     76% 0 mm 0 W/m2
01:34 0.4 °C -3.3 °C 1000.6 hPa Calm     76% 0 mm 0 W/m2
01:39 0.4 °C -3.3 °C 1000.9 hPa Calm     76% 0 mm 0 W/m2
01:44 0.3 °C -3.4 °C 1000.9 hPa Calm     76% 0 mm 0 W/m2
01:49 0.2 °C -3.5 °C 1000.9 hPa Calm     76.1% 0 mm 0 W/m2
01:54 0.1 °C -3.4 °C 1000.9 hPa Calm     77% 0 mm 0 W/m2
01:59 0 °C -3.4 °C 1000.9 hPa Calm     77.4% 0 mm 0 W/m2
02:04 0 °C -3.4 °C 1000.9 hPa Calm     78% 0 mm 0 W/m2
02:09 -0.1 °C -3.4 °C 1000.9 hPa Calm     78% 0 mm 0 W/m2
02:14 -0.1 °C -3.2 °C 1000.9 hPa Calm     79% 0 mm 0 W/m2
02:19 0 °C -3.2 °C 1000.9 hPa Calm     79% 0 mm 0 W/m2
02:24 0 °C -3.2 °C 1000.9 hPa Calm     79% 0 mm 0 W/m2
02:29 0 °C -3.1 °C 1000.9 hPa Calm     79.6% 0 mm 0 W/m2
02:34 0.1 °C -3 °C 1001.2 hPa Calm     80% 0 mm 0 W/m2
02:39 0.1 °C -3 °C 1001.2 hPa WSW 0.2 km/h 3.2 km/h 79.7% 0 mm 0 W/m2
02:44 0.1 °C -3.1 °C 1001.2 hPa WSW 0.2 km/h 4.8 km/h 79.3% 0 mm 0 W/m2
02:49 0.1 °C -2.9 °C 1001.2 hPa Calm   4.8 km/h 80% 0 mm 0 W/m2
02:54 0.1 °C -2.9 °C 1001.2 hPa Calm   4.8 km/h 80% 0 mm 0 W/m2
02:59 0.1 °C -2.9 °C 1000.9 hPa Calm   4.8 km/h 80% 0 mm 0 W/m2
03:04 0.1 °C -3 °C 1000.9 hPa Calm   4.8 km/h 80% 0 mm 0 W/m2
03:09 0.1 °C -2.8 °C 1000.9 hPa Calm     80.7% 0 mm 0 W/m2
03:14 0.1 °C -2.8 °C 1000.9 hPa Calm     81% 0 mm 0 W/m2
03:19 0.1 °C -2.8 °C 1000.9 hPa Calm     81% 0 mm 0 W/m2
03:24 0.1 °C -2.7 °C 1000.9 hPa Calm     81% 0 mm 0 W/m2
03:29 0.2 °C -2.7 °C 1000.9 hPa Calm     81% 0 mm 0 W/m2
03:34 0.2 °C -2.7 °C 1000.9 hPa Calm     80.7% 0 mm 0 W/m2
03:39 0.2 °C -2.8 °C 1000.9 hPa Calm     80.2% 0 mm 0 W/m2
03:44 0.2 °C -2.8 °C 1000.9 hPa Calm     80% 0 mm 0 W/m2
03:49 0.2 °C -2.8 °C 1000.9 hPa Calm     80% 0 mm 0 W/m2
03:54 0.2 °C -2.8 °C 1000.9 hPa Calm     80% 0 mm 0 W/m2
03:59 0.2 °C -2.8 °C 1000.9 hPa Calm     80% 0 mm 0 W/m2
04:04 0.1 °C -2.9 °C 1000.9 hPa Calm     80% 0 mm 0 W/m2
04:09 0.1 °C -2.9 °C 1000.9 hPa Calm     80% 0 mm 0 W/m2
04:14 0.1 °C -2.9 °C 1000.9 hPa Calm     80.4% 0 mm 0 W/m2
04:19 0.1 °C -2.8 °C 1000.9 hPa Calm     80.8% 0 mm 0 W/m2
04:24 0.2 °C -2.9 °C 1000.9 hPa Calm     80% 0 mm 0 W/m2
04:29 0.2 °C -2.9 °C 1000.9 hPa Calm     80% 0 mm 0 W/m2
04:34 0.2 °C -2.9 °C 1000.9 hPa Calm     80% 0 mm 0 W/m2
04:39 0.1 °C -2.9 °C 1000.9 hPa Calm     80% 0 mm 0 W/m2
04:44 0.1 °C -3 °C 1000.9 hPa Calm     80% 0 mm 0 W/m2
04:49 0 °C -3.1 °C 1000.9 hPa Calm     80% 0 mm 0 W/m2
04:54 0 °C -3.1 °C 1000.9 hPa Calm     80% 0 mm 0 W/m2
04:59 -0.1 °C -3.2 °C 1000.9 hPa Calm     80% 0 mm 0 W/m2
05:04 -0.2 °C -3.2 °C 1000.9 hPa Calm     80.3% 0 mm 0 W/m2
05:09 -0.3 °C -3.2 °C 1000.9 hPa Calm     81% 0 mm 0 W/m2
05:14 -0.4 °C -3.2 °C 1000.9 hPa Calm     81% 0 mm 0 W/m2
05:19 -0.4 °C -3.3 °C 1000.9 hPa Calm     81% 0 mm 0 W/m2
05:24 -0.5 °C -3.4 °C 1001.2 hPa Calm     81% 0 mm 0 W/m2
05:29 -0.6 °C -3.4 °C 1001.2 hPa Calm     81.2% 0 mm 0 W/m2
05:34 -0.7 °C -3.4 °C 1001.2 hPa Calm     81.8% 0 mm 0 W/m2
05:39 -0.8 °C -3.5 °C 1001.2 hPa Calm     82% 0 mm 0 W/m2
05:44 -0.9 °C -3.5 °C 1001.2 hPa Calm     82.8% 0 mm 0 W/m2
05:49 -1.1 °C -3.6 °C 1001.2 hPa Calm     83.4% 0 mm 0 W/m2
05:54 -1.1 °C -3.4 °C 1001.2 hPa Calm     84% 0 mm 0 W/m2
05:59 -1.1 °C -3.4 °C 1001.2 hPa Calm     84% 0 mm 0 W/m2
06:04 -1.1 °C -3.4 °C 1001.2 hPa Calm     84% 0 mm 0 W/m2
06:09 -1.1 °C -3.7 °C 1001.2 hPa Calm     83% 0 mm 0 W/m2
06:14 -1.2 °C -3.6 °C 1001.6 hPa Calm     83.8% 0 mm 0 W/m2
06:19 -1.2 °C -3.6 °C 1001.2 hPa Calm     84% 0 mm 0 W/m2
06:24 -1.2 °C -3.6 °C 1001.2 hPa Calm     84% 0 mm 0 W/m2
06:29 -1.2 °C -3.6 °C 1001.2 hPa Calm     84% 0 mm 0 W/m2
06:34 -1.2 °C -3.5 °C 1001.2 hPa Calm     84% 0 mm 0 W/m2
06:39 -1.1 °C -3.4 °C 1001.2 hPa Calm     84% 0 mm 0 W/m2
06:44 -1.1 °C -3.4 °C 1001.2 hPa Calm     83.8% 0 mm 0 W/m2
06:49 -1 °C -3.4 °C 1001.2 hPa Calm     83.7% 0 mm 0 W/m2
06:54 -1 °C -3.5 °C 1001.2 hPa Calm     83% 0 mm 0 W/m2
06:59 -1 °C -3.5 °C 1001.6 hPa Calm     83% 0 mm 0 W/m2
07:04 -1 °C -3.4 °C 1001.6 hPa WSW 0.2 km/h 3.2 km/h 83.4% 0 mm 0 W/m2
07:09 -1 °C -3.4 °C 1001.6 hPa Calm   3.2 km/h 83.8% 0 mm 0 W/m2
07:14 -0.9 °C -3.3 °C 1001.6 hPa Calm   3.2 km/h 83.7% 0 mm 0 W/m2
07:19 -0.8 °C -3.2 °C 1001.6 hPa WSW 0.8 km/h 9.7 km/h 84% 0 mm 5 W/m2
07:24 -0.7 °C -3.1 °C 1001.6 hPa WSW 0.3 km/h 9.7 km/h 84% 0 mm 9 W/m2
07:29 -0.6 °C -2.9 °C 1001.6 hPa WSW 0.2 km/h 9.7 km/h 83.9% 0 mm 16 W/m2
07:34 -0.4 °C -2.9 °C 1001.6 hPa Calm   9.7 km/h 83% 0 mm 21 W/m2
07:39 -0.3 °C -2.8 °C 1001.9 hPa Calm   1.6 km/h 83% 0 mm 26 W/m2
07:44 -0.2 °C -2.7 °C 1001.9 hPa Calm   1.6 km/h 83% 0 mm 26 W/m2
07:49 -0.1 °C -2.7 °C 1001.9 hPa Calm   1.6 km/h 83% 0 mm 28 W/m2
07:54 0 °C -2.6 °C 1001.9 hPa Calm   1.6 km/h 83% 0 mm 25 W/m2
07:59 0.1 °C -2.5 °C 1001.9 hPa Calm   1.6 km/h 82.6% 0 mm 28 W/m2
08:00 0.2 °C -2.6 °C 1001.9 hPa Calm   1.6 km/h 82% 0 mm 28 W/m2
08:09 0.3 °C -2.4 °C 1002.3 hPa WSW 0.3 km/h 6.4 km/h 82% 0 mm 37 W/m2
08:14 0.4 °C -2.3 °C 1002.3 hPa Calm   6.4 km/h 81.8% 0 mm 46 W/m2
08:19 0.6 °C -2.2 °C 1002.3 hPa WSW 0.8 km/h 8 km/h 81.1% 0 mm 46 W/m2
08:24 0.8 °C -2.1 °C 1002.3 hPa WSW 1.6 km/h 9.7 km/h 81% 0 mm 84 W/m2
08:29 1.2 °C -1.7 °C 1002.3 hPa West 1.9 km/h 9.7 km/h 81% 0 mm 158 W/m2
08:34 1.6 °C -1.3 °C 1002.6 hPa West 1.4 km/h 9.7 km/h 80.7% 0 mm 121 W/m2
08:39 2.1 °C -1.2 °C 1002.6 hPa West 1 km/h 8 km/h 78.7% 0 mm 56 W/m2
08:44 2.3 °C -1.4 °C 1002.6 hPa WSW 1.1 km/h 8 km/h 76.5% 0 mm 79 W/m2
08:49 2.5 °C -1.4 °C 1002.9 hPa WNW 1.8 km/h 9.7 km/h 75.1% 0 mm 171 W/m2
08:54 2.6 °C -1.3 °C 1002.9 hPa West 0.3 km/h 9.7 km/h 75% 0 mm 171 W/m2
08:59 2.8 °C -1.4 °C 1002.9 hPa West 0.3 km/h 9.7 km/h 74% 0 mm 93 W/m2
09:04 2.9 °C -1.3 °C 1002.9 hPa Calm   9.7 km/h 73.5% 0 mm 188 W/m2
09:09 3.1 °C -1.2 °C 1002.9 hPa Calm   1.6 km/h 73.7% 0 mm 220 W/m2
09:14 3.2 °C -1.1 °C 1002.9 hPa WSW 0.3 km/h 6.4 km/h 73% 0 mm 239 W/m2
09:19 3.3 °C -1.1 °C 1003.3 hPa WSW 0.3 km/h 6.4 km/h 72.7% 0 mm 239 W/m2
09:24 3.6 °C -0.8 °C 1003.3 hPa Calm   6.4 km/h 73.2% 0 mm 281 W/m2
09:29 3.9 °C -0.6 °C 1003.3 hPa Calm   6.4 km/h 72.8% 0 mm 197 W/m2
09:34 4.2 °C -0.7 °C 1003.3 hPa WSW 1.3 km/h 8 km/h 70.9% 0 mm 299 W/m2
09:39 4.4 °C -0.6 °C 1003.3 hPa WSW 2.1 km/h 12.9 km/h 69.8% 0 mm 244 W/m2
09:44 4.7 °C -0.6 °C 1003.3 hPa WSW 0.2 km/h 12.9 km/h 68.5% 0 mm 253 W/m2
09:49 4.9 °C -0.4 °C 1003.3 hPa WSW 0.8 km/h 12.9 km/h 68.3% 0 mm 304 W/m2
09:54 5.2 °C -0.3 °C 1003.3 hPa WSW 0.2 km/h 12.9 km/h 67.6% 0 mm 294 W/m2
09:59 5.5 °C -0.2 °C 1003.3 hPa WSW 0.8 km/h 12.9 km/h 66.4% 0 mm 178 W/m2
10:04 5.7 °C -0.4 °C 1003.3 hPa WSW 0.2 km/h 12.9 km/h 65% 0 mm 95 W/m2
10:09 5.7 °C -0.6 °C 1003.3 hPa WNW 1.8 km/h 9.7 km/h 64% 0 mm 200 W/m2
10:14 5.7 °C -0.6 °C 1003.3 hPa WNW 0.6 km/h 9.7 km/h 64.3% 0 mm 232 W/m2
10:19 5.7 °C -0.4 °C 1003.3 hPa West 0.3 km/h 9.7 km/h 64.6% 0 mm 244 W/m2
10:24 5.8 °C -0.3 °C 1002.9 hPa West 1.1 km/h 11.3 km/h 65% 0 mm 287 W/m2
10:29 6.1 °C -0.2 °C 1002.9 hPa WNW 3.5 km/h 22.5 km/h 64.3% 0 mm 311 W/m2
10:34 6.4 °C -0.2 °C 1002.9 hPa NW 7.4 km/h 22.5 km/h 62.5% 0 mm 369 W/m2
10:39 6.8 °C -0.1 °C 1002.9 hPa WNW 4.7 km/h 16.1 km/h 61.3% 0 mm 424 W/m2
10:44 7.2 °C 0.2 °C 1002.9 hPa WSW 2.4 km/h 16.1 km/h 60.8% 0 mm 490 W/m2
10:49 7.7 °C 0.1 °C 1002.9 hPa West 3.4 km/h 16.1 km/h 58.5% 0 mm 501 W/m2
10:54 8.1 °C 0.6 °C 1002.9 hPa Calm   16.1 km/h 59% 0 mm 513 W/m2
10:59 8.6 °C 0.8 °C 1002.9 hPa West 0.5 km/h 16.1 km/h 58.2% 0 mm 446 W/m2
11:04 8.9 °C 0.4 °C 1002.9 hPa West 3.2 km/h 16.1 km/h 55.5% 0 mm 446 W/m2
11:09 8.9 °C -0.2 °C 1002.9 hPa West 6.3 km/h 24.1 km/h 52.7% 0 mm 397 W/m2
11:14 8.7 °C -0.4 °C 1002.9 hPa West 6.6 km/h 24.1 km/h 52.7% 0 mm 225 W/m2
11:19 8.3 °C -0.9 °C 1002.9 hPa WNW 12.6 km/h 29 km/h 52.2% 0 mm 169 W/m2
11:24 7.7 °C -1.2 °C 1002.9 hPa WNW 10.8 km/h 29 km/h 53.2% 0 mm 264 W/m2
11:29 7.4 °C -1.1 °C 1002.9 hPa West 7.6 km/h 29 km/h 55% 0 mm 209 W/m2
11:34 7.3 °C -1.2 °C 1002.9 hPa West 8 km/h 29 km/h 55% 0 mm 107 W/m2
11:39 7.1 °C -1.3 °C 1002.6 hPa West 6.1 km/h 22.5 km/h 55.2% 0 mm 79 W/m2
11:44 6.8 °C -1.6 °C 1002.9 hPa WNW 6.8 km/h 22.5 km/h 55.5% 0 mm 204 W/m2
11:49 6.4 °C -1.7 °C 1002.9 hPa WNW 11.6 km/h 22.5 km/h 56% 0 mm 158 W/m2
11:54 6.2 °C -2 °C 1002.6 hPa WNW 12.4 km/h 32.2 km/h 55.5% 0 mm 171 W/m2
11:59 6.1 °C -2 °C 1002.6 hPa WNW 10.6 km/h 32.2 km/h 56% 0 mm 232 W/m2
12:00 6.1 °C -2 °C 1002.6 hPa WNW 11.3 km/h 32.2 km/h 56% 0 mm 128 W/m2
12:09 6.1 °C -2.2 °C 1002.9 hPa WNW 10.9 km/h 22.5 km/h 55.3% 0 mm 91 W/m2
12:14 6.1 °C -2.2 °C 1002.6 hPa WNW 6.4 km/h 22.5 km/h 55.6% 0 mm 98 W/m2
12:19 6 °C -2 °C 1002.6 hPa WNW 10.9 km/h 24.1 km/h 56.3% 0 mm 98 W/m2
12:24 6 °C -1.9 °C 1002.6 hPa WNW 4.7 km/h 24.1 km/h 56.7% 0 mm 167 W/m2
12:29 6.1 °C -1.8 °C 1002.6 hPa WNW 3.7 km/h 24.1 km/h 57% 0 mm 193 W/m2
12:34 6.2 °C -1.8 °C 1002.6 hPa WNW 10.1 km/h 25.7 km/h 56.3% 0 mm 193 W/m2
12:39 6.3 °C -2 °C 1002.6 hPa NW 8.9 km/h 25.7 km/h 55.4% 0 mm 134 W/m2
12:44 6.3 °C -1.9 °C 1002.6 hPa NW 6 km/h 25.7 km/h 55.7% 0 mm 149 W/m2
12:49 6.3 °C -1.8 °C 1002.6 hPa WNW 6.4 km/h 27.4 km/h 56% 0 mm 153 W/m2
12:54 6.3 °C -1.8 °C 1002.6 hPa West 9.5 km/h 27.4 km/h 56% 0 mm 130 W/m2
12:59 6.3 °C -1.9 °C 1002.9 hPa West 2.3 km/h 27.4 km/h 55.7% 0 mm 127 W/m2
13:04 6.2 °C -1.9 °C 1002.9 hPa West 8 km/h 27.4 km/h 56% 0 mm 127 W/m2
13:09 6.2 °C -2.2 °C 1002.9 hPa West 7.9 km/h 24.1 km/h 55% 0 mm 77 W/m2
13:14 6.1 °C -2.3 °C 1002.9 hPa West 12.6 km/h 30.6 km/h 55.2% 0 mm 49 W/m2
13:19 5.9 °C -2.3 °C 1002.9 hPa West 4.8 km/h 30.6 km/h 55.6% 0 mm 63 W/m2
13:24 5.7 °C -2.3 °C 1002.9 hPa WNW 8.4 km/h 30.6 km/h 56.1% 0 mm 70 W/m2
13:29 5.6 °C -2.2 °C 1002.9 hPa West 7.6 km/h 30.6 km/h 57% 0 mm 69 W/m2
13:34 5.5 °C -2.3 °C 1003.3 hPa WNW 7.9 km/h 30.6 km/h 57% 0 mm 72 W/m2
13:39 5.5 °C -2.3 °C 1003.3 hPa WNW 2.6 km/h 22.5 km/h 57.3% 0 mm 88 W/m2
13:44 5.5 °C -2.2 °C 1002.9 hPa West 5.3 km/h 22.5 km/h 57.5% 0 mm 107 W/m2
13:49 5.5 °C -2.1 °C 1002.9 hPa West 1.4 km/h 22.5 km/h 57.9% 0 mm 111 W/m2
13:54 5.6 °C -2.3 °C 1003.3 hPa West 9.8 km/h 22.5 km/h 57.1% 0 mm 141 W/m2
13:59 5.6 °C -2.3 °C 1003.3 hPa WNW 5 km/h 22.5 km/h 56.5% 0 mm 144 W/m2
14:04 5.7 °C -2.3 °C 1003.3 hPa West 10.9 km/h 32.2 km/h 56.2% 0 mm 146 W/m2
14:09 5.8 °C -2.6 °C 1003.3 hPa WNW 8.7 km/h 32.2 km/h 55% 0 mm 144 W/m2
14:14 5.8 °C -2.5 °C 1003.6 hPa WNW 7.7 km/h 32.2 km/h 55% 0 mm 142 W/m2
14:19 5.9 °C -2.4 °C 1003.3 hPa West 7.6 km/h 32.2 km/h 55% 0 mm 139 W/m2
14:24 6 °C -2.4 °C 1003.6 hPa West 6.6 km/h 32.2 km/h 55% 0 mm 125 W/m2
14:29 6 °C -2.3 °C 1003.6 hPa WNW 3.4 km/h 32.2 km/h 55.1% 0 mm 121 W/m2
14:34 6.1 °C -2.1 °C 1003.6 hPa WSW 4 km/h 32.2 km/h 55.8% 0 mm 123 W/m2
14:39 6.1 °C -2.1 °C 1003.6 hPa West 1.6 km/h 17.7 km/h 55.7% 0 mm 127 W/m2
14:44 6.1 °C -2.1 °C 1003.6 hPa WSW 5 km/h 19.3 km/h 55.8% 0 mm 135 W/m2
14:49 6.2 °C -2.1 °C 1003.6 hPa West 3.7 km/h 19.3 km/h 55.5% 0 mm 134 W/m2
14:54 6.2 °C -2 °C 1003.6 hPa WSW 1.3 km/h 19.3 km/h 55.8% 0 mm 114 W/m2
14:59 6.2 °C -1.9 °C 1003.6 hPa WNW 4 km/h 19.3 km/h 55.9% 0 mm 86 W/m2
15:04 6.2 °C -2.2 °C 1003.9 hPa WNW 8.7 km/h 19.3 km/h 55% 0 mm 76 W/m2
15:09 6.1 °C -2.3 °C 1003.9 hPa WNW 6.1 km/h 20.9 km/h 55% 0 mm 76 W/m2
15:14 6 °C -2.3 °C 1003.9 hPa WNW 8.2 km/h 22.5 km/h 55.3% 0 mm 81 W/m2
15:19 5.9 °C -2.2 °C 1003.9 hPa WNW 5.6 km/h 22.5 km/h 56% 0 mm 84 W/m2
15:24 5.8 °C -2.3 °C 1003.9 hPa WNW 4.2 km/h 22.5 km/h 56% 0 mm 83 W/m2
15:29 5.8 °C -2.3 °C 1003.9 hPa WNW 14.6 km/h 27.4 km/h 56% 0 mm 69 W/m2
15:34 5.7 °C -2.3 °C 1003.9 hPa WNW 10.6 km/h 27.4 km/h 56.1% 0 mm 62 W/m2
15:39 5.7 °C -2.2 °C 1004.3 hPa WNW 11.1 km/h 24.1 km/h 57% 0 mm 62 W/m2
15:44 5.6 °C -2.1 °C 1004.3 hPa WNW 8.2 km/h 35.4 km/h 57.5% 0 mm 62 W/m2
15:49 5.6 °C -2.1 °C 1004.3 hPa WNW 9.2 km/h 35.4 km/h 57.6% 0 mm 56 W/m2
15:54 5.6 °C -2.1 °C 1004.3 hPa WNW 10.3 km/h 35.4 km/h 58% 0 mm 60 W/m2
15:59 5.5 °C -2 °C 1004.6 hPa WNW 10.8 km/h 35.4 km/h 58.4% 0 mm 54 W/m2
16:04 5.4 °C -1.9 °C 1004.6 hPa NW 9.8 km/h 19.3 km/h 59% 0 mm 47 W/m2
16:09 5.4 °C -1.8 °C 1004.6 hPa WNW 7.6 km/h 27.4 km/h 59.6% 0 mm 39 W/m2
16:14 5.4 °C -1.7 °C 1004.6 hPa WNW 9.7 km/h 27.4 km/h 60% 0 mm 28 W/m2
16:19 5.3 °C -1.8 °C 1005 hPa WNW 11.3 km/h 27.4 km/h 60% 0 mm 21 W/m2
16:24 5.2 °C -1.8 °C 1005 hPa WNW 7.9 km/h 27.4 km/h 60.3% 0 mm 18 W/m2
16:29 5.1 °C -1.8 °C 1005 hPa West 3.2 km/h 27.4 km/h 61% 0 mm 14 W/m2
16:34 5 °C -1.8 °C 1005 hPa WNW 5.6 km/h 27.4 km/h 61.5% 0 mm 11 W/m2
16:39 4.8 °C -1.8 °C 1005.3 hPa WNW 9.5 km/h 17.7 km/h 62% 0 mm 9 W/m2
16:44 4.7 °C -1.8 °C 1005.3 hPa WNW 6.1 km/h 17.7 km/h 62.9% 0 mm 7 W/m2
16:49 4.6 °C -1.7 °C 1005.3 hPa WNW 2.3 km/h 17.7 km/h 63.9% 0 mm 5 W/m2
16:54 4.4 °C -1.6 °C 1005.3 hPa NW 4 km/h 17.7 km/h 65% 0 mm 0 W/m2
16:59 4.2 °C -1.6 °C 1005.6 hPa WNW 5 km/h 17.7 km/h 66% 0 mm 0 W/m2
17:04 4 °C -1.6 °C 1005.6 hPa WNW 6.4 km/h 17.7 km/h 67% 0 mm 0 W/m2
17:09 3.9 °C -1.7 °C 1005.6 hPa West 2.6 km/h 14.5 km/h 67% 0 mm 0 W/m2
17:14 3.7 °C -1.6 °C 1005.6 hPa WNW 3.4 km/h 14.5 km/h 67.9% 0 mm 0 W/m2
17:19 3.6 °C -1.7 °C 1005.6 hPa West 4.2 km/h 14.5 km/h 68.2% 0 mm 0 W/m2
17:24 3.5 °C -1.7 °C 1005.6 hPa West 3.7 km/h 14.5 km/h 69% 0 mm 0 W/m2
17:29 3.4 °C -1.7 °C 1005.6 hPa West 3.4 km/h 14.5 km/h 69% 0 mm 0 W/m2
17:34 3.3 °C -1.7 °C 1006 hPa West 4.2 km/h 14.5 km/h 69.8% 0 mm 0 W/m2
17:39 3.2 °C -1.7 °C 1006 hPa West 2.6 km/h 19.3 km/h 70% 0 mm 0 W/m2
17:44 3.2 °C -1.8 °C 1006 hPa WNW 5 km/h 19.3 km/h 70% 0 mm 0 W/m2
17:49 3.1 °C -1.8 °C 1006.3 hPa WNW 5.6 km/h 19.3 km/h 70% 0 mm 0 W/m2
17:54 3.1 °C -1.9 °C 1006.3 hPa WNW 8.5 km/h 19.3 km/h 70% 0 mm 0 W/m2
17:59 3.1 °C -1.9 °C 1006.3 hPa WNW 12.4 km/h 27.4 km/h 70.1% 0 mm 0 W/m2
18:04 3.1 °C -1.6 °C 1006.3 hPa WNW 10 km/h 27.4 km/h 71% 0 mm 0 W/m2
18:09 3.1 °C -1.6 °C 1006.3 hPa NW 5.8 km/h 22.5 km/h 71% 0 mm 0 W/m2
18:14 3.1 °C -1.7 °C 1006.7 hPa WNW 4.5 km/h 22.5 km/h 71% 0 mm 0 W/m2
18:19 3 °C -1.7 °C 1006.7 hPa WNW 6 km/h 22.5 km/h 71.5% 0 mm 0 W/m2
18:24 2.9 °C -1.6 °C 1007 hPa NW 3.9 km/h 22.5 km/h 72% 0 mm 0 W/m2
18:29 2.9 °C -1.6 °C 1007 hPa NW 1.8 km/h 22.5 km/h 72.2% 0 mm 0 W/m2
18:34 2.8 °C -1.6 °C 1007 hPa NNW 3.2 km/h 22.5 km/h 73% 0 mm 0 W/m2
18:39 2.7 °C -1.6 °C 1007 hPa NNW 1.8 km/h 14.5 km/h 73.4% 0 mm 0 W/m2
18:44 2.7 °C -1.5 °C 1007 hPa NNW 1 km/h 14.5 km/h 74% 0 mm 0 W/m2
18:49 2.6 °C -1.6 °C 1007.3 hPa NNW 0.3 km/h 14.5 km/h 74% 0 mm 0 W/m2
18:54 2.5 °C -1.7 °C 1007.3 hPa Calm   14.5 km/h 74% 0 mm 0 W/m2
18:59 2.4 °C -1.6 °C 1007.3 hPa Calm   14.5 km/h 74.7% 0 mm 0 W/m2
19:04 2.4 °C -1.6 °C 1007.3 hPa Calm   14.5 km/h 75% 0 mm 0 W/m2
19:09 2.3 °C -1.6 °C 1007.7 hPa Calm     75.4% 0 mm 0 W/m2
19:11 2.3 °C -1.5 °C 1007.7 hPa Calm     76% 0 mm 0 W/m2
19:30 2.2 °C -1.2 °C 1007.7 hPa Calm   14.5 km/h 78% 0 mm 0 W/m2
20:09 2.7 °C -1.2 °C 1008.4 hPa NW 4 km/h 14.5 km/h 75.6% 0 mm 0 W/m2
20:14 2.6 °C -1.4 °C 1008.4 hPa NW 6.3 km/h 19.3 km/h 75% 0 mm 0 W/m2
20:19 2.6 °C -1.4 °C 1008.4 hPa NW 7.9 km/h 27.4 km/h 75% 0 mm 0 W/m2
20:24 2.6 °C -1.4 °C 1008.4 hPa WNW 8 km/h 27.4 km/h 75% 0 mm 0 W/m2
20:29 2.6 °C -1.6 °C 1008.4 hPa NW 5.6 km/h 27.4 km/h 74.4% 0 mm 0 W/m2
20:34 2.6 °C -1.6 °C 1008.7 hPa WNW 7.2 km/h 27.4 km/h 74% 0 mm 0 W/m2
20:39 2.5 °C -1.8 °C 1008.7 hPa WNW 7.4 km/h 25.7 km/h 73.1% 0 mm 0 W/m2
20:44 2.5 °C -1.9 °C 1008.7 hPa WNW 11.3 km/h 29 km/h 72.4% 0 mm 0 W/m2
20:49 2.4 °C -2.1 °C 1008.7 hPa NW 4.5 km/h 29 km/h 71.8% 0 mm 0 W/m2
20:54 2.4 °C -2.3 °C 1009 hPa WNW 7.4 km/h 29 km/h 70.9% 0 mm 0 W/m2
20:59 2.4 °C -2.5 °C 1009 hPa NW 2.3 km/h 29 km/h 70% 0 mm 0 W/m2
21:04 2.4 °C -2.6 °C 1009 hPa NW 6.9 km/h 29 km/h 70% 0 mm 0 W/m2
21:09 2.3 °C -2.8 °C 1009 hPa NW 8.7 km/h 27.4 km/h 68.9% 0 mm 0 W/m2
21:14 2.3 °C -3 °C 1009 hPa NW 3.9 km/h 27.4 km/h 68% 0 mm 0 W/m2
21:19 2.2 °C -3.1 °C 1009 hPa NW 6.4 km/h 27.4 km/h 68% 0 mm 0 W/m2
21:24 2.2 °C -3.3 °C 1009 hPa NNW 6.4 km/h 27.4 km/h 67% 0 mm 0 W/m2
21:29 2.1 °C -3.4 °C 1009 hPa NW 1.4 km/h 27.4 km/h 67% 0 mm 0 W/m2
21:34 2 °C -3.5 °C 1009 hPa NW 5.5 km/h 27.4 km/h 67% 0 mm 0 W/m2
21:39 1.9 °C -3.6 °C 1009 hPa North 2.3 km/h 14.5 km/h 67% 0 mm 0 W/m2
21:44 1.9 °C -3.5 °C 1009.4 hPa North 0.8 km/h 14.5 km/h 67.1% 0 mm 0 W/m2
21:49 1.9 °C -3.5 °C 1009.4 hPa NW 3.1 km/h 14.5 km/h 67.2% 0 mm 0 W/m2
21:54 1.9 °C -3.6 °C 1009.4 hPa NNW 1.9 km/h 14.5 km/h 67% 0 mm 0 W/m2
21:59 1.9 °C -3.7 °C 1009.4 hPa NNW 3.1 km/h 14.5 km/h 66.4% 0 mm 0 W/m2
22:04 1.9 °C -3.7 °C 1009.4 hPa NW 3.1 km/h 14.5 km/h 66.1% 0 mm 0 W/m2
22:09 1.9 °C -3.7 °C 1009.4 hPa NW 3.5 km/h 11.3 km/h 66% 0 mm 0 W/m2
22:14 1.9 °C -3.7 °C 1009.4 hPa NW 5.3 km/h 12.9 km/h 66% 0 mm 0 W/m2
22:19 1.9 °C -3.7 °C 1009.7 hPa WNW 5.8 km/h 17.7 km/h 66% 0 mm 0 W/m2
22:24 1.9 °C -3.8 °C 1009.7 hPa NW 5.5 km/h 17.7 km/h 65.7% 0 mm 0 W/m2
22:29 1.9 °C -3.8 °C 1009.7 hPa NW 5.1 km/h 17.7 km/h 65.6% 0 mm 0 W/m2
22:34 1.9 °C -3.9 °C 1009.7 hPa NW 3.5 km/h 17.7 km/h 65% 0 mm 0 W/m2
22:39 1.9 °C -4 °C 1009.7 hPa NW 1.8 km/h 11.3 km/h 65% 0 mm 0 W/m2
22:44 1.8 °C -4 °C 1009.7 hPa WNW 4.5 km/h 14.5 km/h 65.2% 0 mm 0 W/m2
22:49 1.8 °C -3.9 °C 1009.7 hPa NW 1 km/h 14.5 km/h 65.5% 0 mm 0 W/m2
22:54 1.8 °C -4.1 °C 1009.7 hPa NW 4.8 km/h 20.9 km/h 65% 0 mm 0 W/m2
22:58 1.8 °C -4.2 °C 1010 hPa NW 8.2 km/h 20.9 km/h 64.8% 0 mm 0 W/m2
23:04 1.8 °C -4.3 °C 1009.7 hPa WNW 6.1 km/h 9.7 km/h 64% 0 mm 0 W/m2
23:09 1.8 °C -4.3 °C 1009.7 hPa WNW 5.6 km/h 14.5 km/h 64% 0 mm 0 W/m2
23:14 1.7 °C -4.3 °C 1010 hPa WNW 4.5 km/h 16.1 km/h 64% 0 mm 0 W/m2
23:19 1.7 °C -4.5 °C 1010 hPa WNW 8.9 km/h 17.7 km/h 63.3% 0 mm 0 W/m2
23:24 1.7 °C -4.6 °C 1010 hPa WNW 7.6 km/h 17.7 km/h 63% 0 mm 0 W/m2
23:29 1.7 °C -4.6 °C 1010 hPa WNW 10.1 km/h 24.1 km/h 63.4% 0 mm 0 W/m2
23:34 1.6 °C -4.7 °C 1009.7 hPa NW 8 km/h 24.1 km/h 63% 0 mm 0 W/m2
23:39 1.6 °C -4.7 °C 1010 hPa WNW 14 km/h 22.5 km/h 63% 0 mm 0 W/m2
23:44 1.6 °C -4.7 °C 1010 hPa WNW 13.2 km/h 24.1 km/h 63% 0 mm 0 W/m2
23:49 1.6 °C -4.9 °C 1010 hPa WNW 10.6 km/h 27.4 km/h 62% 0 mm 0 W/m2
23:54 1.6 °C -5 °C 1010 hPa WNW 12.7 km/h 27.4 km/h 61.9% 0 mm 0 W/m2
23:59 1.5 °C -5.2 °C 1009.7 hPa WNW 7.7 km/h 27.4 km/h 61% 0 mm 0 W/m2
Hartford County Weather
Compliments of Weather Underground - 4 mb